ESTO weather

CLOSED Tomelilla Airfield
Tomelilla, Skåne län, Sweden

Public forecast

Using degrees Celsius for public forecast. Weather courtesy of forecast.io.

Closest aviation weather report (METAR) to Tomelilla Airfield

Closest report is Malmö Sturup Airport, 21.2 nm (39.3 km) W. Retrieved 2020/08/03 11:20 UTC (19 minutes ago):

ESMS 031120Z 29010KT 9999 SCT040 18/10 Q1011

Closest aviation forecast (TAF) to Tomelilla Airfield

Closest forecast is Malmö Sturup Airport, 21.2 nm (39.3 km) W. Retrieved 2020/08/03 06:00 UTC (6 hours ago):

TAF ESMS 030503Z 0306/0406 31010KT 9999 SCT030